Terminal Aerodrome Forecast
Issued by NWS Pendleton, OR

Home | Current Version | Previous Version | Text Only | Print | Product List | Glossary On
Versions: 1 2 3 4 5 6 7 8 9 10 11 12 13 14 15 16
000
FTUS46 KPDT 061728
TAFPDT
TAF
KPDT 061728Z 0618/0718 32006KT 4SM -SN BR SCT007 BKN015 OVC025
      TEMPO 0618/0622 2SM -SN BR BKN007 OVC015
     FM062200 30006KT 6SM -SHSN BR BKN007 OVC015
     FM070200 30005KT P6SM SCT015 BKN035
     FM070500 VRB04KT P6SM FEW040=

USA.gov is the U.S. government's official web portal to all federal, state and local government web resources and services.